createdAt,value
2023-05-18T00:00:05.407Z,6.53
2023-05-18T00:02:33.048Z,6.51
2023-05-18T00:05:02.587Z,6.48
2023-05-18T00:07:34.326Z,6.45
2023-05-18T00:10:02.239Z,6.42
2023-05-18T00:12:29.987Z,6.38
2023-05-18T00:14:57.607Z,6.36
2023-05-18T00:17:25.612Z,6.34
2023-05-18T00:19:53.326Z,6.31
2023-05-18T00:22:20.914Z,6.30
2023-05-18T00:24:48.512Z,6.27
2023-05-18T00:27:16.256Z,6.23
2023-05-18T00:29:44.494Z,6.19
2023-05-18T00:32:12.114Z,6.16
2023-05-18T00:34:39.789Z,6.14
2023-05-18T00:37:07.410Z,6.12
2023-05-18T00:39:35.004Z,6.11
2023-05-18T00:42:03.092Z,6.11
2023-05-18T00:44:30.847Z,6.11
2023-05-18T00:47:00.270Z,6.09
2023-05-18T00:49:27.925Z,6.06
2023-05-18T00:51:55.528Z,6.03
2023-05-18T00:54:23.516Z,6.00
2023-05-18T00:56:51.242Z,5.96
2023-05-18T00:59:18.857Z,5.92
2023-05-18T01:01:47.081Z,5.88
2023-05-18T01:04:15.454Z,5.83
2023-05-18T01:06:44.094Z,5.76
2023-05-18T01:09:12.331Z,5.70
2023-05-18T01:11:40.632Z,5.66
2023-05-18T01:14:08.287Z,5.61
2023-05-18T01:16:37.541Z,5.56
2023-05-18T01:19:06.092Z,5.55
2023-05-18T01:21:34.497Z,5.53
2023-05-18T01:24:03.652Z,5.53
2023-05-18T01:26:31.870Z,5.52
2023-05-18T01:28:59.462Z,5.56
2023-05-18T01:31:29.050Z,5.56
2023-05-18T01:33:56.802Z,5.58
2023-05-18T01:36:24.393Z,5.58
2023-05-18T01:38:51.998Z,5.57
2023-05-18T01:41:19.658Z,5.52
2023-05-18T01:43:47.598Z,5.50
2023-05-18T01:46:15.229Z,5.48
2023-05-18T01:48:42.894Z,5.46
2023-05-18T01:51:10.491Z,5.44
2023-05-18T01:53:38.548Z,5.42
2023-05-18T01:56:06.540Z,5.40
2023-05-18T01:58:34.124Z,5.38
2023-05-18T02:01:01.758Z,5.38
2023-05-18T02:03:29.539Z,5.38
2023-05-18T02:05:57.273Z,5.35
2023-05-18T02:08:25.230Z,5.34
2023-05-18T02:10:52.883Z,5.34
2023-05-18T02:13:20.496Z,5.32
2023-05-18T02:15:48.643Z,5.28
2023-05-18T02:18:16.740Z,5.22
2023-05-18T02:20:44.655Z,5.15
2023-05-18T02:23:12.337Z,5.08
2023-05-18T02:25:40.076Z,5.03
2023-05-18T02:28:07.721Z,4.98
2023-05-18T02:30:35.407Z,4.93
2023-05-18T02:33:04.931Z,4.87
2023-05-18T02:35:32.807Z,4.81
2023-05-18T02:38:00.644Z,4.76
2023-05-18T02:40:28.285Z,4.70
2023-05-18T02:42:55.930Z,4.66
2023-05-18T02:45:23.769Z,4.61
2023-05-18T02:47:51.536Z,4.56
2023-05-18T02:50:19.192Z,4.51
2023-05-18T02:52:49.333Z,4.47
2023-05-18T02:55:17.464Z,4.46
2023-05-18T02:57:47.375Z,4.43
2023-05-18T03:00:16.901Z,4.40
2023-05-18T03:02:48.635Z,4.37
2023-05-18T03:05:16.753Z,4.33
2023-05-18T03:07:51.167Z,4.28
2023-05-18T03:10:18.788Z,4.26
2023-05-18T03:12:46.414Z,4.22
2023-05-18T03:15:16.364Z,4.19
2023-05-18T03:17:44.048Z,4.15
2023-05-18T03:20:12.276Z,4.14
2023-05-18T03:22:39.904Z,4.12
2023-05-18T03:25:07.493Z,4.15
2023-05-18T03:27:35.094Z,4.16
2023-05-18T03:30:02.738Z,4.17
2023-05-18T03:32:32.113Z,4.16
2023-05-18T03:35:01.196Z,4.15
2023-05-18T03:37:28.884Z,4.12
2023-05-18T03:39:56.803Z,4.11
2023-05-18T03:42:25.856Z,4.09
2023-05-18T03:44:53.884Z,4.07
2023-05-18T03:47:22.304Z,4.07
2023-05-18T03:49:49.974Z,4.06
2023-05-18T03:52:22.283Z,4.07
2023-05-18T03:54:50.270Z,4.07
2023-05-18T03:57:17.869Z,4.08
2023-05-18T03:59:45.736Z,4.09
2023-05-18T04:02:13.426Z,4.11
2023-05-18T04:04:42.137Z,4.10
2023-05-18T04:07:09.755Z,4.10
2023-05-18T04:09:37.678Z,4.11
2023-05-18T04:12:05.464Z,4.13
2023-05-18T04:14:34.254Z,4.16
2023-05-18T04:17:05.100Z,4.21
2023-05-18T04:19:33.095Z,4.29
2023-05-18T04:22:01.284Z,4.35
2023-05-18T04:24:32.677Z,4.44
2023-05-18T04:27:01.006Z,4.51
2023-05-18T04:29:29.326Z,4.58
2023-05-18T04:32:00.129Z,4.66
2023-05-18T04:34:27.861Z,4.74
2023-05-18T04:36:56.146Z,4.81
2023-05-18T04:39:23.730Z,4.90
2023-05-18T04:41:58.277Z,4.97
2023-05-18T04:44:26.033Z,5.05
2023-05-18T04:46:54.369Z,5.15
2023-05-18T04:49:23.349Z,5.23
2023-05-18T04:51:55.763Z,5.32
2023-05-18T04:54:23.438Z,5.42
2023-05-18T04:56:51.194Z,5.51
2023-05-18T04:59:19.199Z,5.62
2023-05-18T05:01:47.188Z,5.73
2023-05-18T05:04:15.079Z,5.90
2023-05-18T05:06:42.750Z,6.09
2023-05-18T05:09:10.380Z,6.27
2023-05-18T05:11:38.086Z,6.51
2023-05-18T05:14:05.883Z,6.66
2023-05-18T05:16:33.510Z,6.81
2023-05-18T05:19:01.333Z,6.94
2023-05-18T05:21:29.028Z,7.07
2023-05-18T05:23:57.057Z,7.19
2023-05-18T05:26:24.846Z,7.32
2023-05-18T05:28:52.802Z,7.42
2023-05-18T05:31:20.465Z,7.48
2023-05-18T05:33:48.159Z,7.57
2023-05-18T05:36:16.179Z,7.69
2023-05-18T05:38:43.823Z,7.83
2023-05-18T05:41:11.535Z,7.94
2023-05-18T05:43:39.193Z,8.07
2023-05-18T05:46:06.791Z,8.18
2023-05-18T05:48:34.495Z,8.30
2023-05-18T05:51:03.715Z,8.40
2023-05-18T05:53:31.323Z,8.48
2023-05-18T05:55:58.972Z,8.61
2023-05-18T05:58:26.610Z,8.71
2023-05-18T06:00:54.258Z,8.85
2023-05-18T06:03:22.057Z,9.01
2023-05-18T06:05:49.814Z,9.13
2023-05-18T06:08:17.464Z,9.26
2023-05-18T06:10:45.204Z,9.39
2023-05-18T06:13:13.697Z,9.50
2023-05-18T06:15:41.320Z,9.57
2023-05-18T06:18:09.927Z,9.64
2023-05-18T06:20:38.460Z,9.71
2023-05-18T06:23:06.103Z,9.81
2023-05-18T06:25:35.752Z,9.93
2023-05-18T06:28:03.670Z,10.06
2023-05-18T06:30:31.353Z,10.13
2023-05-18T06:32:59.089Z,10.24
2023-05-18T06:35:26.758Z,10.34
2023-05-18T06:37:54.462Z,10.41
2023-05-18T06:40:22.190Z,10.53
2023-05-18T06:42:49.820Z,10.64
2023-05-18T06:45:17.490Z,10.74
2023-05-18T06:47:45.262Z,10.85
2023-05-18T06:50:13.277Z,10.96
2023-05-18T06:52:40.956Z,11.10
2023-05-18T06:55:09.341Z,11.19
2023-05-18T06:57:36.986Z,11.28
2023-05-18T07:00:07.460Z,11.35
2023-05-18T07:02:35.524Z,11.44
2023-05-18T07:05:05.753Z,11.53
2023-05-18T07:07:33.490Z,11.61
2023-05-18T07:10:01.307Z,11.73
2023-05-18T07:12:29.236Z,11.85
2023-05-18T07:14:57.278Z,11.90
2023-05-18T07:17:26.821Z,11.99
2023-05-18T07:19:54.647Z,12.11
2023-05-18T07:22:22.332Z,12.22
2023-05-18T07:24:50.155Z,12.30
2023-05-18T07:27:18.203Z,12.38
2023-05-18T07:29:46.140Z,12.47
2023-05-18T07:32:13.857Z,12.55
2023-05-18T07:34:42.661Z,12.60
2023-05-18T07:37:10.363Z,12.68
2023-05-18T07:39:40.405Z,12.73
2023-05-18T07:42:08.187Z,12.83
2023-05-18T07:44:36.068Z,12.91
2023-05-18T07:47:03.992Z,12.95
2023-05-18T07:49:31.889Z,13.00
2023-05-18T07:52:01.001Z,13.01
2023-05-18T07:54:29.101Z,13.04
2023-05-18T07:56:59.102Z,13.09
2023-05-18T07:59:28.121Z,13.14
2023-05-18T08:01:58.020Z,13.19
2023-05-18T08:04:26.188Z,13.28
2023-05-18T08:06:54.997Z,13.34
2023-05-18T08:09:23.308Z,13.38
2023-05-18T08:11:51.787Z,13.44
2023-05-18T08:14:19.481Z,13.54
2023-05-18T08:16:47.721Z,13.63
2023-05-18T08:19:15.744Z,13.66
2023-05-18T08:21:43.591Z,13.69
2023-05-18T08:24:11.769Z,13.75
2023-05-18T08:26:39.770Z,13.84
2023-05-18T08:29:10.297Z,13.93
2023-05-18T08:31:38.282Z,14.03
2023-05-18T08:34:06.290Z,14.13
2023-05-18T08:36:34.639Z,14.20
2023-05-18T08:39:03.078Z,14.22
2023-05-18T08:41:31.454Z,14.29
2023-05-18T08:43:59.222Z,14.38
2023-05-18T08:46:27.506Z,14.45
2023-05-18T08:48:55.275Z,14.55
2023-05-18T08:51:23.049Z,14.64
2023-05-18T08:53:51.207Z,14.72
2023-05-18T08:56:19.166Z,14.76
2023-05-18T08:58:46.940Z,14.80
2023-05-18T09:01:14.685Z,14.86
2023-05-18T09:03:42.555Z,14.94
2023-05-18T09:06:10.977Z,15.06
2023-05-18T09:08:39.234Z,15.17
2023-05-18T09:11:07.032Z,15.24
2023-05-18T09:13:34.809Z,15.34
2023-05-18T09:16:02.720Z,15.47
2023-05-18T09:18:30.860Z,15.59
2023-05-18T09:20:58.881Z,15.70
2023-05-18T09:23:26.830Z,15.74
2023-05-18T09:25:54.573Z,15.86
2023-05-18T09:28:22.453Z,15.93
2023-05-18T09:30:50.659Z,16.06
2023-05-18T09:33:19.469Z,16.12
2023-05-18T09:35:47.686Z,16.24
2023-05-18T09:38:15.669Z,16.31
2023-05-18T09:40:43.393Z,16.48
2023-05-18T09:43:11.526Z,16.72
2023-05-18T09:45:39.343Z,17.09
2023-05-18T09:48:07.110Z,17.43
2023-05-18T09:50:35.020Z,17.65
2023-05-18T09:53:03.262Z,18.00
2023-05-18T09:55:31.380Z,18.40
2023-05-18T09:57:59.400Z,18.71
2023-05-18T10:00:27.408Z,19.06
2023-05-18T10:02:56.711Z,19.39
2023-05-18T10:05:24.715Z,19.29
2023-05-18T10:07:52.973Z,19.18
2023-05-18T10:10:20.985Z,19.47
2023-05-18T10:12:48.817Z,19.91
2023-05-18T10:15:17.354Z,20.24
2023-05-18T10:17:45.327Z,20.58
2023-05-18T10:20:13.859Z,20.89
2023-05-18T10:22:41.913Z,21.19
2023-05-18T10:25:09.744Z,21.42
2023-05-18T10:27:37.677Z,21.64
2023-05-18T10:30:05.636Z,21.90
2023-05-18T10:32:33.925Z,22.05
2023-05-18T10:35:01.835Z,22.30
2023-05-18T10:37:31.084Z,22.48
2023-05-18T10:39:58.820Z,22.79
2023-05-18T10:42:26.669Z,23.04
2023-05-18T10:44:54.944Z,23.20
2023-05-18T10:47:23.061Z,23.38
2023-05-18T10:49:50.869Z,23.37
2023-05-18T10:52:18.792Z,22.87
2023-05-18T10:54:46.604Z,22.27
2023-05-18T10:57:15.107Z,22.19
2023-05-18T10:59:46.703Z,22.56
2023-05-18T11:02:16.224Z,23.07
2023-05-18T11:04:44.168Z,23.60
2023-05-18T11:07:12.299Z,24.07
2023-05-18T11:09:40.562Z,24.29
2023-05-18T11:12:09.042Z,24.52
2023-05-18T11:14:37.071Z,24.75
2023-05-18T11:17:04.985Z,25.08
2023-05-18T11:19:32.860Z,25.40
2023-05-18T11:22:01.737Z,25.54
2023-05-18T11:24:29.898Z,25.68
2023-05-18T11:26:57.754Z,25.76
2023-05-18T11:29:26.013Z,25.87
2023-05-18T11:31:54.084Z,25.79
2023-05-18T11:34:22.876Z,25.90
2023-05-18T11:36:51.114Z,25.71
2023-05-18T11:39:18.894Z,25.73
2023-05-18T11:41:47.833Z,25.79
2023-05-18T11:44:16.461Z,25.94
2023-05-18T11:46:44.786Z,26.21
2023-05-18T11:49:13.233Z,25.81
2023-05-18T11:51:41.071Z,25.74
2023-05-18T11:54:09.221Z,26.04
2023-05-18T11:56:37.053Z,25.33
2023-05-18T11:59:05.396Z,25.04
2023-05-18T12:01:33.445Z,25.38
2023-05-18T12:04:01.247Z,25.87
2023-05-18T12:06:29.239Z,26.30
2023-05-18T12:08:57.047Z,26.57
2023-05-18T12:11:24.946Z,26.44
2023-05-18T12:13:53.063Z,26.70
2023-05-18T12:16:20.887Z,26.95
2023-05-18T12:18:48.892Z,27.03
2023-05-18T12:21:17.281Z,27.01
2023-05-18T12:23:45.915Z,27.05
2023-05-18T12:26:14.659Z,27.16
2023-05-18T12:28:43.292Z,26.31
2023-05-18T12:31:11.249Z,25.22
2023-05-18T12:33:39.182Z,25.44
2023-05-18T12:36:07.465Z,25.86
2023-05-18T12:38:36.289Z,26.13
2023-05-18T12:41:04.037Z,26.00
2023-05-18T12:43:31.953Z,25.71
2023-05-18T12:45:59.860Z,25.75
2023-05-18T12:48:27.913Z,26.01
2023-05-18T12:50:56.841Z,26.38
2023-05-18T12:53:25.056Z,26.53
2023-05-18T12:55:52.947Z,26.87
2023-05-18T12:58:21.290Z,26.91
2023-05-18T13:00:49.517Z,26.89
2023-05-18T13:03:17.937Z,27.09
2023-05-18T13:05:46.322Z,27.20
2023-05-18T13:08:14.221Z,27.24
2023-05-18T13:10:41.976Z,27.46
2023-05-18T13:13:10.688Z,27.57
2023-05-18T13:15:38.857Z,27.82
2023-05-18T13:18:06.814Z,28.03
2023-05-18T13:20:36.532Z,27.96
2023-05-18T13:23:04.865Z,27.95
2023-05-18T13:25:33.602Z,27.87
2023-05-18T13:28:01.755Z,27.56
2023-05-18T13:30:29.804Z,27.15
2023-05-18T13:32:57.813Z,26.74
2023-05-18T13:35:25.835Z,26.31
2023-05-18T13:37:53.654Z,25.83
2023-05-18T13:40:21.656Z,25.46
2023-05-18T13:42:49.592Z,25.16
2023-05-18T13:45:17.599Z,24.93
2023-05-18T13:47:50.877Z,24.56
2023-05-18T13:50:19.483Z,24.35
2023-05-18T13:52:48.085Z,24.18
2023-05-18T13:55:16.710Z,23.99
2023-05-18T13:57:44.557Z,23.84
2023-05-18T14:00:13.671Z,24.00
2023-05-18T14:02:41.760Z,24.35
2023-05-18T14:05:10.559Z,24.69
2023-05-18T14:07:38.457Z,25.06
2023-05-18T14:10:06.538Z,25.29
2023-05-18T14:12:34.453Z,25.62
2023-05-18T14:15:02.926Z,25.92
2023-05-18T14:17:32.850Z,26.02
2023-05-18T14:20:00.850Z,25.86
2023-05-18T14:22:30.709Z,25.75
2023-05-18T14:24:58.679Z,25.87
2023-05-18T14:27:26.844Z,25.93
2023-05-18T14:29:54.680Z,26.08
2023-05-18T14:32:22.789Z,26.11
2023-05-18T14:34:52.193Z,26.10
2023-05-18T14:37:20.058Z,26.00
2023-05-18T14:39:49.085Z,25.85
2023-05-18T14:42:16.870Z,25.77
2023-05-18T14:44:44.779Z,25.63
2023-05-18T14:47:12.814Z,25.71
2023-05-18T14:49:40.711Z,25.87
2023-05-18T14:52:08.999Z,26.31
2023-05-18T14:54:37.054Z,26.51
2023-05-18T14:57:04.964Z,26.48
2023-05-18T14:59:32.997Z,26.52
2023-05-18T15:02:01.196Z,26.67
2023-05-18T15:04:29.099Z,26.83
2023-05-18T15:06:56.937Z,27.07
2023-05-18T15:09:26.719Z,27.41
2023-05-18T15:11:54.744Z,27.77
2023-05-18T15:14:22.520Z,27.88
2023-05-18T15:16:50.737Z,28.04
2023-05-18T15:19:19.422Z,28.16
2023-05-18T15:21:47.455Z,28.18
2023-05-18T15:24:15.731Z,28.18
2023-05-18T15:26:43.606Z,28.17
2023-05-18T15:29:11.848Z,28.30
2023-05-18T15:31:40.286Z,28.32
2023-05-18T15:34:08.161Z,28.33
2023-05-18T15:36:36.631Z,28.27
2023-05-18T15:39:05.248Z,28.26
2023-05-18T15:41:34.986Z,28.01
2023-05-18T15:44:02.972Z,27.96
2023-05-18T15:46:33.351Z,28.03
2023-05-18T15:49:01.188Z,27.83
2023-05-18T15:51:29.189Z,27.79
2023-05-18T15:53:57.593Z,27.75
2023-05-18T15:56:25.975Z,27.82
2023-05-18T15:58:53.843Z,27.91
2023-05-18T16:01:21.868Z,27.95
2023-05-18T16:03:49.807Z,27.92
2023-05-18T16:06:17.935Z,27.80
2023-05-18T16:08:48.206Z,27.67
2023-05-18T16:11:16.036Z,27.72
2023-05-18T16:13:43.783Z,27.70
2023-05-18T16:16:14.377Z,27.67
2023-05-18T16:18:42.555Z,27.61
2023-05-18T16:21:10.826Z,27.37
2023-05-18T16:23:38.682Z,27.04
2023-05-18T16:26:06.542Z,26.69
2023-05-18T16:28:34.268Z,25.92
2023-05-18T16:31:04.391Z,24.74
2023-05-18T16:33:32.327Z,23.46
2023-05-18T16:36:00.194Z,22.45
2023-05-18T16:38:28.111Z,21.64
2023-05-18T16:40:55.871Z,20.99
2023-05-18T16:43:24.582Z,20.46
2023-05-18T16:45:52.480Z,20.04
2023-05-18T16:48:20.247Z,19.68
2023-05-18T16:50:48.106Z,19.36
2023-05-18T16:53:16.435Z,19.04
2023-05-18T16:55:44.665Z,18.78
2023-05-18T16:58:12.967Z,18.62
2023-05-18T17:00:40.804Z,18.45
2023-05-18T17:03:08.684Z,18.23
2023-05-18T17:05:36.651Z,18.04
2023-05-18T17:08:04.835Z,17.88
2023-05-18T17:10:35.670Z,17.73
2023-05-18T17:13:03.545Z,17.61
2023-05-18T17:15:32.062Z,17.50
2023-05-18T17:17:59.994Z,17.45
2023-05-18T17:20:28.764Z,17.36
2023-05-18T17:22:57.724Z,17.32
2023-05-18T17:25:26.756Z,17.24
2023-05-18T17:27:54.522Z,17.16
2023-05-18T17:30:22.507Z,17.06
2023-05-18T17:32:51.548Z,16.99
2023-05-18T17:35:19.504Z,16.93
2023-05-18T17:37:49.063Z,16.87
2023-05-18T17:40:16.904Z,16.83
2023-05-18T17:42:44.707Z,16.78
2023-05-18T17:45:12.975Z,16.71
2023-05-18T17:47:41.953Z,16.65
2023-05-18T17:50:09.991Z,16.59
2023-05-18T17:52:37.904Z,16.53
2023-05-18T17:55:05.597Z,16.49
2023-05-18T17:57:34.326Z,16.42
2023-05-18T18:00:05.614Z,16.37
2023-05-18T18:02:33.524Z,16.29
2023-05-18T18:05:01.289Z,16.23
2023-05-18T18:07:29.326Z,16.17
2023-05-18T18:09:57.852Z,16.13
2023-05-18T18:12:25.838Z,16.07
2023-05-18T18:14:53.750Z,16.00
2023-05-18T18:17:21.584Z,15.96
2023-05-18T18:19:49.511Z,15.91
2023-05-18T18:22:17.943Z,15.84
2023-05-18T18:24:45.800Z,15.76
2023-05-18T18:27:13.841Z,15.71
2023-05-18T18:29:41.796Z,15.65
2023-05-18T18:32:10.123Z,15.57
2023-05-18T18:34:38.303Z,15.51
2023-05-18T18:37:06.480Z,15.45
2023-05-18T18:39:35.416Z,15.38
2023-05-18T18:42:03.361Z,15.31
2023-05-18T18:44:31.826Z,15.24
2023-05-18T18:47:00.052Z,15.17
2023-05-18T18:49:27.984Z,15.10
2023-05-18T18:51:59.060Z,15.04
2023-05-18T18:54:27.658Z,14.96
2023-05-18T18:56:56.820Z,14.86
2023-05-18T18:59:25.006Z,14.79
2023-05-18T19:01:53.011Z,14.72
2023-05-18T19:04:21.092Z,14.65
2023-05-18T19:06:49.536Z,14.58
2023-05-18T19:09:20.181Z,14.49
2023-05-18T19:11:48.442Z,14.42
2023-05-18T19:14:16.846Z,14.33
2023-05-18T19:16:44.734Z,14.24
2023-05-18T19:19:15.102Z,14.17
2023-05-18T19:21:44.615Z,14.11
2023-05-18T19:24:13.040Z,14.04
2023-05-18T19:26:40.865Z,13.96
2023-05-18T19:29:11.148Z,13.90
2023-05-18T19:31:39.043Z,13.83
2023-05-18T19:34:07.005Z,13.79
2023-05-18T19:36:36.723Z,13.74
2023-05-18T19:39:06.223Z,13.67
2023-05-18T19:41:34.094Z,13.61
2023-05-18T19:44:04.460Z,13.56
2023-05-18T19:46:32.560Z,13.51
2023-05-18T19:49:01.501Z,13.47
2023-05-18T19:51:30.783Z,13.42
2023-05-18T19:53:58.669Z,13.38
2023-05-18T19:56:26.794Z,13.33
2023-05-18T19:58:56.672Z,13.27
2023-05-18T20:01:25.513Z,13.22
2023-05-18T20:03:56.528Z,13.18
2023-05-18T20:06:24.639Z,13.14
2023-05-18T20:08:52.452Z,13.09
2023-05-18T20:11:21.522Z,13.02
2023-05-18T20:13:50.056Z,12.97
2023-05-18T20:16:18.765Z,12.91
2023-05-18T20:18:46.921Z,12.85
2023-05-18T20:21:14.931Z,12.80
2023-05-18T20:23:45.476Z,12.73
2023-05-18T20:26:13.947Z,12.67
2023-05-18T20:28:42.395Z,12.65
2023-05-18T20:31:11.878Z,12.58
2023-05-18T20:33:39.788Z,12.49
2023-05-18T20:36:09.185Z,12.41
2023-05-18T20:38:39.301Z,12.31
2023-05-18T20:41:08.281Z,12.21
2023-05-18T20:43:37.850Z,12.14
2023-05-18T20:46:06.191Z,12.04
2023-05-18T20:48:36.064Z,12.00
2023-05-18T20:51:04.233Z,12.02
2023-05-18T20:53:32.126Z,12.01
2023-05-18T20:56:01.597Z,11.97
2023-05-18T20:58:29.597Z,11.90
2023-05-18T21:00:57.523Z,11.85
2023-05-18T21:03:25.943Z,11.76
2023-05-18T21:05:54.064Z,11.68
2023-05-18T21:08:21.971Z,11.60
2023-05-18T21:10:49.945Z,11.53
2023-05-18T21:13:17.926Z,11.43
2023-05-18T21:15:46.580Z,11.33
2023-05-18T21:18:14.576Z,11.23
2023-05-18T21:20:42.534Z,11.12
2023-05-18T21:23:10.345Z,11.01
2023-05-18T21:25:38.324Z,10.92
2023-05-18T21:28:06.502Z,10.84
2023-05-18T21:30:34.602Z,10.77
2023-05-18T21:33:02.948Z,10.70
2023-05-18T21:35:30.950Z,10.65
2023-05-18T21:37:58.784Z,10.60
2023-05-18T21:40:27.026Z,10.57
2023-05-18T21:42:56.312Z,10.54
2023-05-18T21:45:25.051Z,10.51
2023-05-18T21:47:52.976Z,10.47
2023-05-18T21:50:20.876Z,10.44
2023-05-18T21:52:49.127Z,10.40
2023-05-18T21:55:17.166Z,10.37
2023-05-18T21:57:44.876Z,10.36
2023-05-18T22:00:14.006Z,10.34
2023-05-18T22:02:41.958Z,10.31
2023-05-18T22:05:10.137Z,10.26
2023-05-18T22:07:38.339Z,10.24
2023-05-18T22:10:06.434Z,10.20
2023-05-18T22:12:34.501Z,10.13
2023-05-18T22:15:02.289Z,10.07
2023-05-18T22:17:30.702Z,10.02
2023-05-18T22:19:58.449Z,9.95
2023-05-18T22:22:30.637Z,9.90
2023-05-18T22:24:58.470Z,9.87
2023-05-18T22:27:26.179Z,9.82
2023-05-18T22:29:54.245Z,9.78
2023-05-18T22:32:22.205Z,9.73
2023-05-18T22:34:50.077Z,9.69
2023-05-18T22:37:17.747Z,9.65
2023-05-18T22:39:45.529Z,9.62
2023-05-18T22:42:13.238Z,9.59
2023-05-18T22:44:42.269Z,9.58
2023-05-18T22:47:10.248Z,9.56
2023-05-18T22:49:37.947Z,9.54
2023-05-18T22:52:05.648Z,9.52
2023-05-18T22:54:33.724Z,9.49
2023-05-18T22:57:01.564Z,9.47
2023-05-18T22:59:29.544Z,9.43
2023-05-18T23:01:57.326Z,9.38
2023-05-18T23:04:24.981Z,9.34
2023-05-18T23:06:53.069Z,9.31
2023-05-18T23:09:21.402Z,9.28
2023-05-18T23:11:51.660Z,9.23
2023-05-18T23:14:20.165Z,9.21
2023-05-18T23:16:49.456Z,9.16
2023-05-18T23:19:20.256Z,9.10
2023-05-18T23:21:48.264Z,9.05
2023-05-18T23:24:16.055Z,8.99
2023-05-18T23:26:43.780Z,8.94
2023-05-18T23:29:11.920Z,8.91
2023-05-18T23:31:39.981Z,8.88
2023-05-18T23:34:07.649Z,8.85
2023-05-18T23:36:36.362Z,8.84
2023-05-18T23:39:04.068Z,8.81
2023-05-18T23:41:31.780Z,8.79
2023-05-18T23:43:59.838Z,8.75
2023-05-18T23:46:27.736Z,8.71
2023-05-18T23:48:55.344Z,8.68
2023-05-18T23:51:23.362Z,8.65
2023-05-18T23:53:50.999Z,8.64
2023-05-18T23:56:19.117Z,8.61
2023-05-18T23:58:47.013Z,8.59
